TimeEDT,TemperatureF,Dew PointF,Humidity,Sea Level PressureIn,VisibilityMPH,Wind Direction,Wind SpeedMPH,Gust SpeedMPH,PrecipitationIn,Events,Conditions,WindDirDegrees,DateUTC
12:55 AM,50.5,42.4,74,29.85,10.0,SW,4.6,-,N/A,,Partly Cloudy,230,2012-10-22 04:55:00
1:55 AM,50.2,42.3,74,29.85,10.0,SW,6.9,-,N/A,,Partly Cloudy,230,2012-10-22 05:55:00
2:55 AM,50.5,41.5,71,29.84,10.0,West,9.2,-,N/A,,Clear,260,2012-10-22 06:55:00
3:55 AM,48.7,40.6,74,29.85,10.0,West,5.8,-,N/A,,Clear,270,2012-10-22 07:55:00
4:55 AM,48.0,38.7,70,29.86,10.0,West,9.2,-,N/A,,Clear,260,2012-10-22 08:55:00
5:55 AM,49.3,37.0,63,29.86,10.0,West,13.8,-,N/A,,Clear,280,2012-10-22 09:55:00
6:55 AM,49.1,36.7,62,29.87,10.0,WNW,11.5,-,N/A,,Clear,290,2012-10-22 10:55:00
7:55 AM,50.4,37.2,61,29.88,10.0,West,12.7,19.6,N/A,,Clear,280,2012-10-22 11:55:00
8:55 AM,53.8,38.3,56,29.89,10.0,West,13.8,-,N/A,,Clear,280,2012-10-22 12:55:00
9:55 AM,56.8,39.2,52,29.89,10.0,WNW,16.1,24.2,N/A,,Partly Cloudy,290,2012-10-22 13:55:00
10:55 AM,59.2,39.4,48,29.89,10.0,WNW,15.0,23.0,N/A,,Partly Cloudy,290,2012-10-22 14:55:00
11:55 AM,61.5,38.7,43,29.88,10.0,West,19.6,29.9,N/A,,Scattered Clouds,280,2012-10-22 15:55:00
12:55 PM,62.6,37.6,40,29.88,10.0,WNW,19.6,26.5,N/A,,Scattered Clouds,290,2012-10-22 16:55:00
1:55 PM,64.2,38.3,38,29.88,10.0,West,16.1,24.2,N/A,,Scattered Clouds,280,2012-10-22 17:55:00
2:55 PM,64.2,38.5,39,29.87,10.0,West,13.8,18.4,N/A,,Partly Cloudy,280,2012-10-22 18:55:00
3:55 PM,62.4,38.7,41,29.88,10.0,WNW,10.4,19.6,N/A,,Scattered Clouds,300,2012-10-22 19:55:00
4:55 PM,61.5,39.0,43,29.88,10.0,NW,13.8,-,N/A,,Partly Cloudy,310,2012-10-22 20:55:00
5:55 PM,57.6,39.4,51,29.90,10.0,NW,11.5,-,N/A,,Partly Cloudy,310,2012-10-22 21:55:00
6:55 PM,56.1,39.6,54,29.93,10.0,WNW,11.5,-,N/A,,Clear,300,2012-10-22 22:55:00
7:55 PM,55.2,38.8,54,29.94,10.0,WNW,9.2,-,N/A,,Clear,290,2012-10-22 23:55:00
8:55 PM,55.9,38.1,51,29.96,10.0,West,10.4,-,N/A,,Clear,270,2012-10-23 00:55:00
9:55 PM,53.6,38.5,57,29.96,10.0,West,8.1,-,N/A,,Clear,260,2012-10-23 01:55:00
10:55 PM,52.5,38.5,59,29.98,10.0,West,5.8,-,N/A,,Clear,260,2012-10-23 02:55:00
11:55 PM,51.1,38.7,63,29.98,10.0,West,4.6,-,N/A,,Partly Cloudy,260,2012-10-23 03:55:00